ポルト・アレグレ の空港の天気 - METARとTAF

ポルト・アレグレ国際空港 ( SBPA / POA ) - ブラジル リオグランデ・ド・スル州ポルト・アレグレ
飛行場実況気象(Metar)
観測時間01/23 03:00 BRST (01/23 05:00 UTC)
風向・風速不定 1m/s
視程10km以上
天気現象
なし
気温22℃
湿度94%
気圧1005hPa
METARSBPA 230500Z VRB02KT CAVOK 22/21 Q1005
過去の天気等 Google飛行場航空写真 Wunderground天気予報

過去48時間のMETAR

飛行場予報(TAF)
発表時間: 1/23 01:00 BRST (1/23 03:00 UTC)
予報対象時間: 23日4時 BRST ~ 24日4時 BRST
風向・風速東南東 3m/s
視程10km以上
少しの雲 雲底高度 1,070m
23日5時 BRST ~ 23日9時 BRST に 確率 40% で一時的に
視程8,000m
全天の8割程度の雲 雲底高度 270m
23日10時 BRST ~ 23日12時 BRST に徐々に
風向・風速西北西 4m/s
全天の4割程度の雲 雲底高度 1,220m
TAF SBPA 230300Z 2306/2406 11005KT 9999 FEW035 TN23/2308Z TX31/2318Z
PROB40 TEMPO 2307/2311 8000 BKN009
BECMG 2312/2314 30008KT SCT040
BECMG 240 0/2402 27005KT CAVOK RMK PER